sensor_id;sensor_type;location;lat;lon;timestamp;P1;durP1;ratioP1;P2;durP2;ratioP2
43823;SDS011;29470;53.550;9.926;2024-01-10T00:02:42;46.22;;;21.30;;
43823;SDS011;29470;53.550;9.926;2024-01-10T00:07:53;46.53;;;22.77;;
43823;SDS011;29470;53.550;9.926;2024-01-10T00:13:17;53.60;;;23.85;;
43823;SDS011;29470;53.550;9.926;2024-01-10T00:18:39;50.33;;;24.73;;
43823;SDS011;29470;53.550;9.926;2024-01-10T00:24:03;51.65;;;21.90;;
43823;SDS011;29470;53.550;9.926;2024-01-10T00:29:32;49.17;;;22.08;;
43823;SDS011;29470;53.550;9.926;2024-01-10T00:34:48;45.50;;;20.90;;
43823;SDS011;29470;53.550;9.926;2024-01-10T00:40:06;46.15;;;21.67;;
43823;SDS011;29470;53.550;9.926;2024-01-10T00:45:34;43.17;;;20.17;;
43823;SDS011;29470;53.550;9.926;2024-01-10T00:50:58;49.78;;;22.20;;
43823;SDS011;29470;53.550;9.926;2024-01-10T00:56:18;54.97;;;24.15;;
43823;SDS011;29470;53.550;9.926;2024-01-10T01:01:42;49.13;;;22.55;;
43823;SDS011;29470;53.550;9.926;2024-01-10T01:07:01;43.70;;;20.45;;
43823;SDS011;29470;53.550;9.926;2024-01-10T01:12:16;46.03;;;20.73;;
43823;SDS011;29470;53.550;9.926;2024-01-10T01:17:42;43.92;;;17.65;;
43823;SDS011;29470;53.550;9.926;2024-01-10T01:23:15;41.92;;;18.73;;
43823;SDS011;29470;53.550;9.926;2024-01-10T01:28:49;43.05;;;16.88;;
43823;SDS011;29470;53.550;9.926;2024-01-10T01:34:19;39.92;;;17.38;;
43823;SDS011;29470;53.550;9.926;2024-01-10T01:39:59;41.60;;;18.20;;
43823;SDS011;29470;53.550;9.926;2024-01-10T01:45:26;42.95;;;17.15;;
43823;SDS011;29470;53.550;9.926;2024-01-10T01:50:49;41.43;;;18.63;;
43823;SDS011;29470;53.550;9.926;2024-01-10T01:56:02;42.67;;;17.42;;
43823;SDS011;29470;53.550;9.926;2024-01-10T02:01:30;48.23;;;19.97;;
43823;SDS011;29470;53.550;9.926;2024-01-10T02:06:55;42.70;;;17.75;;
43823;SDS011;29470;53.550;9.926;2024-01-10T02:12:08;48.42;;;16.60;;
43823;SDS011;29470;53.550;9.926;2024-01-10T02:17:29;44.80;;;17.65;;
43823;SDS011;29470;53.550;9.926;2024-01-10T02:22:53;42.55;;;18.15;;
43823;SDS011;29470;53.550;9.926;2024-01-10T02:28:24;41.05;;;16.42;;
43823;SDS011;29470;53.550;9.926;2024-01-10T02:33:49;28.83;;;11.55;;
43823;SDS011;29470;53.550;9.926;2024-01-10T02:39:00;39.22;;;14.98;;
43823;SDS011;29470;53.550;9.926;2024-01-10T02:44:41;36.67;;;13.27;;
43823;SDS011;29470;53.550;9.926;2024-01-10T02:50:05;42.28;;;14.65;;
43823;SDS011;29470;53.550;9.926;2024-01-10T02:55:26;40.25;;;15.45;;
43823;SDS011;29470;53.550;9.926;2024-01-10T03:01:13;35.58;;;13.48;;
43823;SDS011;29470;53.550;9.926;2024-01-10T03:06:44;39.25;;;14.88;;
43823;SDS011;29470;53.550;9.926;2024-01-10T03:12:03;37.50;;;16.05;;
43823;SDS011;29470;53.550;9.926;2024-01-10T03:17:37;40.83;;;14.73;;
43823;SDS011;29470;53.550;9.926;2024-01-10T03:23:01;36.03;;;12.30;;
43823;SDS011;29470;53.550;9.926;2024-01-10T03:28:29;36.38;;;12.48;;
43823;SDS011;29470;53.550;9.926;2024-01-10T03:33:57;38.65;;;13.63;;
43823;SDS011;29470;53.550;9.926;2024-01-10T03:39:22;42.65;;;16.17;;
43823;SDS011;29470;53.550;9.926;2024-01-10T03:44:54;40.17;;;16.38;;
43823;SDS011;29470;53.550;9.926;2024-01-10T03:50:09;39.47;;;15.40;;
43823;SDS011;29470;53.550;9.926;2024-01-10T03:55:41;36.30;;;15.23;;
43823;SDS011;29470;53.550;9.926;2024-01-10T04:00:59;32.38;;;13.57;;
43823;SDS011;29470;53.550;9.926;2024-01-10T04:06:26;32.17;;;14.63;;
43823;SDS011;29470;53.550;9.926;2024-01-10T04:11:51;30.02;;;13.50;;
43823;SDS011;29470;53.550;9.926;2024-01-10T04:17:10;25.77;;;10.60;;
43823;SDS011;29470;53.550;9.926;2024-01-10T04:22:29;27.75;;;11.05;;
43823;SDS011;29470;53.550;9.926;2024-01-10T04:27:48;32.25;;;13.63;;
43823;SDS011;29470;53.550;9.926;2024-01-10T04:33:04;28.83;;;11.50;;
43823;SDS011;29470;53.550;9.926;2024-01-10T04:38:28;29.65;;;12.70;;
43823;SDS011;29470;53.550;9.926;2024-01-10T04:43:54;28.60;;;13.10;;
43823;SDS011;29470;53.550;9.926;2024-01-10T04:49:18;34.15;;;15.85;;
43823;SDS011;29470;53.550;9.926;2024-01-10T04:54:43;29.27;;;12.23;;
43823;SDS011;29470;53.550;9.926;2024-01-10T04:59:53;30.67;;;13.40;;
43823;SDS011;29470;53.550;9.926;2024-01-10T05:05:18;26.70;;;11.93;;
43823;SDS011;29470;53.550;9.926;2024-01-10T05:10:35;23.52;;;10.48;;
43823;SDS011;29470;53.550;9.926;2024-01-10T05:15:53;27.27;;;11.25;;
43823;SDS011;29470;53.550;9.926;2024-01-10T05:21:07;18.88;;;8.25;;
43823;SDS011;29470;53.550;9.926;2024-01-10T05:26:30;12.05;;;5.65;;
43823;SDS011;29470;53.550;9.926;2024-01-10T05:31:47;23.67;;;10.10;;
43823;SDS011;29470;53.550;9.926;2024-01-10T05:37:00;23.90;;;10.15;;
43823;SDS011;29470;53.550;9.926;2024-01-10T05:42:16;18.98;;;9.20;;
43823;SDS011;29470;53.550;9.926;2024-01-10T05:47:27;23.13;;;8.95;;
43823;SDS011;29470;53.550;9.926;2024-01-10T05:52:51;27.10;;;11.93;;
43823;SDS011;29470;53.550;9.926;2024-01-10T05:58:08;22.48;;;9.73;;
43823;SDS011;29470;53.550;9.926;2024-01-10T06:03:30;21.33;;;10.00;;
43823;SDS011;29470;53.550;9.926;2024-01-10T06:08:40;20.00;;;9.43;;
43823;SDS011;29470;53.550;9.926;2024-01-10T06:13:55;20.45;;;9.82;;
43823;SDS011;29470;53.550;9.926;2024-01-10T06:19:11;21.38;;;10.38;;
43823;SDS011;29470;53.550;9.926;2024-01-10T06:24:28;20.42;;;10.88;;
43823;SDS011;29470;53.550;9.926;2024-01-10T06:29:42;15.00;;;6.28;;
43823;SDS011;29470;53.550;9.926;2024-01-10T06:35:08;20.10;;;9.70;;
43823;SDS011;29470;53.550;9.926;2024-01-10T06:40:19;19.83;;;9.57;;
43823;SDS011;29470;53.550;9.926;2024-01-10T06:45:41;19.75;;;7.50;;
43823;SDS011;29470;53.550;9.926;2024-01-10T06:56:25;18.55;;;8.95;;
43823;SDS011;29470;53.550;9.926;2024-01-10T07:01:39;17.88;;;8.93;;
43823;SDS011;29470;53.550;9.926;2024-01-10T07:06:48;19.35;;;8.55;;
43823;SDS011;29470;53.550;9.926;2024-01-10T07:11:59;17.33;;;9.25;;
43823;SDS011;29470;53.550;9.926;2024-01-10T07:17:16;17.48;;;8.82;;
43823;SDS011;29470;53.550;9.926;2024-01-10T07:22:36;17.98;;;9.30;;
43823;SDS011;29470;53.550;9.926;2024-01-10T07:27:50;23.00;;;11.18;;
43823;SDS011;29470;53.550;9.926;2024-01-10T07:33:16;22.13;;;9.48;;
43823;SDS011;29470;53.550;9.926;2024-01-10T07:38:39;17.75;;;9.52;;
43823;SDS011;29470;53.550;9.926;2024-01-10T07:44:04;20.75;;;10.45;;
43823;SDS011;29470;53.550;9.926;2024-01-10T07:49:16;19.45;;;10.23;;
43823;SDS011;29470;53.550;9.926;2024-01-10T07:54:34;19.88;;;8.45;;
43823;SDS011;29470;53.550;9.926;2024-01-10T07:59:52;21.20;;;10.77;;
43823;SDS011;29470;53.550;9.926;2024-01-10T08:05:05;22.65;;;11.73;;
43823;SDS011;29470;53.550;9.926;2024-01-10T08:10:22;26.92;;;12.48;;
43823;SDS011;29470;53.550;9.926;2024-01-10T08:15:34;21.85;;;11.60;;
43823;SDS011;29470;53.550;9.926;2024-01-10T08:20:49;24.58;;;11.52;;
43823;SDS011;29470;53.550;9.926;2024-01-10T08:26:10;23.75;;;11.98;;
43823;SDS011;29470;53.550;9.926;2024-01-10T08:31:22;24.98;;;10.60;;
43823;SDS011;29470;53.550;9.926;2024-01-10T08:36:39;23.60;;;11.38;;
43823;SDS011;29470;53.550;9.926;2024-01-10T08:41:55;24.53;;;11.20;;
43823;SDS011;29470;53.550;9.926;2024-01-10T08:47:12;21.37;;;8.40;;
43823;SDS011;29470;53.550;9.926;2024-01-10T08:52:28;22.73;;;10.85;;
43823;SDS011;29470;53.550;9.926;2024-01-10T08:57:39;22.52;;;10.75;;
43823;SDS011;29470;53.550;9.926;2024-01-10T09:02:56;21.17;;;9.95;;
43823;SDS011;29470;53.550;9.926;2024-01-10T09:08:14;18.30;;;7.93;;
43823;SDS011;29470;53.550;9.926;2024-01-10T09:13:39;20.23;;;9.93;;
43823;SDS011;29470;53.550;9.926;2024-01-10T09:18:56;28.58;;;12.32;;
43823;SDS011;29470;53.550;9.926;2024-01-10T09:24:26;24.65;;;10.98;;
43823;SDS011;29470;53.550;9.926;2024-01-10T09:29:39;24.10;;;9.88;;
43823;SDS011;29470;53.550;9.926;2024-01-10T09:35:00;25.75;;;11.95;;
43823;SDS011;29470;53.550;9.926;2024-01-10T09:40:32;23.85;;;10.00;;
43823;SDS011;29470;53.550;9.926;2024-01-10T09:45:55;28.05;;;12.13;;
43823;SDS011;29470;53.550;9.926;2024-01-10T09:51:11;23.20;;;11.13;;
43823;SDS011;29470;53.550;9.926;2024-01-10T09:56:29;25.13;;;11.27;;
43823;SDS011;29470;53.550;9.926;2024-01-10T10:01:45;21.63;;;9.98;;
43823;SDS011;29470;53.550;9.926;2024-01-10T10:07:02;21.30;;;9.27;;
43823;SDS011;29470;53.550;9.926;2024-01-10T10:12:15;22.38;;;10.35;;
43823;SDS011;29470;53.550;9.926;2024-01-10T10:17:25;21.73;;;10.90;;
43823;SDS011;29470;53.550;9.926;2024-01-10T10:22:38;49.10;;;20.30;;
43823;SDS011;29470;53.550;9.926;2024-01-10T10:27:52;25.40;;;10.55;;
43823;SDS011;29470;53.550;9.926;2024-01-10T10:33:02;23.20;;;10.93;;
43823;SDS011;29470;53.550;9.926;2024-01-10T10:38:26;23.20;;;10.27;;
43823;SDS011;29470;53.550;9.926;2024-01-10T10:43:39;22.02;;;9.43;;
43823;SDS011;29470;53.550;9.926;2024-01-10T10:48:56;29.88;;;12.15;;
43823;SDS011;29470;53.550;9.926;2024-01-10T10:54:16;24.55;;;11.05;;
43823;SDS011;29470;53.550;9.926;2024-01-10T10:59:40;21.20;;;9.82;;
43823;SDS011;29470;53.550;9.926;2024-01-10T11:04:54;9.63;;;4.25;;
43823;SDS011;29470;53.550;9.926;2024-01-10T11:10:11;23.27;;;9.65;;
43823;SDS011;29470;53.550;9.926;2024-01-10T11:15:52;29.10;;;10.63;;
43823;SDS011;29470;53.550;9.926;2024-01-10T11:21:19;24.33;;;9.88;;
43823;SDS011;29470;53.550;9.926;2024-01-10T11:26:45;26.10;;;11.95;;
43823;SDS011;29470;53.550;9.926;2024-01-10T11:32:06;22.83;;;9.02;;
43823;SDS011;29470;53.550;9.926;2024-01-10T11:37:38;21.08;;;9.45;;
43823;SDS011;29470;53.550;9.926;2024-01-10T11:48:05;20.05;;;8.30;;
43823;SDS011;29470;53.550;9.926;2024-01-10T11:59:03;23.67;;;9.93;;
43823;SDS011;29470;53.550;9.926;2024-01-10T12:04:19;21.60;;;9.35;;
43823;SDS011;29470;53.550;9.926;2024-01-10T12:09:50;16.17;;;7.03;;
43823;SDS011;29470;53.550;9.926;2024-01-10T12:15:02;23.38;;;9.55;;
43823;SDS011;29470;53.550;9.926;2024-01-10T12:20:20;24.08;;;10.13;;
43823;SDS011;29470;53.550;9.926;2024-01-10T12:25:33;20.98;;;8.95;;
43823;SDS011;29470;53.550;9.926;2024-01-10T12:30:47;23.77;;;11.38;;
43823;SDS011;29470;53.550;9.926;2024-01-10T12:36:06;19.17;;;8.70;;
43823;SDS011;29470;53.550;9.926;2024-01-10T12:41:20;19.17;;;9.15;;
43823;SDS011;29470;53.550;9.926;2024-01-10T12:46:49;15.95;;;7.75;;
43823;SDS011;29470;53.550;9.926;2024-01-10T12:52:08;20.27;;;8.77;;
43823;SDS011;29470;53.550;9.926;2024-01-10T12:57:26;19.77;;;8.65;;
43823;SDS011;29470;53.550;9.926;2024-01-10T13:02:50;15.65;;;7.68;;
43823;SDS011;29470;53.550;9.926;2024-01-10T13:08:02;15.43;;;7.68;;
43823;SDS011;29470;53.550;9.926;2024-01-10T13:13:20;17.13;;;7.38;;
43823;SDS011;29470;53.550;9.926;2024-01-10T13:18:37;15.57;;;6.83;;
43823;SDS011;29470;53.550;9.926;2024-01-10T13:23:59;17.48;;;7.78;;
43823;SDS011;29470;53.550;9.926;2024-01-10T13:29:08;16.42;;;7.15;;
43823;SDS011;29470;53.550;9.926;2024-01-10T13:34:23;14.60;;;6.70;;
43823;SDS011;29470;53.550;9.926;2024-01-10T13:39:44;17.60;;;8.35;;
43823;SDS011;29470;53.550;9.926;2024-01-10T13:45:03;18.00;;;8.07;;
43823;SDS011;29470;53.550;9.926;2024-01-10T13:50:22;10.52;;;4.95;;
43823;SDS011;29470;53.550;9.926;2024-01-10T13:55:44;17.92;;;8.38;;
43823;SDS011;29470;53.550;9.926;2024-01-10T14:01:15;17.95;;;8.40;;
43823;SDS011;29470;53.550;9.926;2024-01-10T14:06:32;18.92;;;8.50;;
43823;SDS011;29470;53.550;9.926;2024-01-10T14:11:56;18.70;;;8.50;;
43823;SDS011;29470;53.550;9.926;2024-01-10T14:17:11;17.67;;;7.72;;
43823;SDS011;29470;53.550;9.926;2024-01-10T14:22:27;17.85;;;8.25;;
43823;SDS011;29470;53.550;9.926;2024-01-10T14:27:39;20.52;;;9.00;;
43823;SDS011;29470;53.550;9.926;2024-01-10T14:32:51;17.52;;;8.52;;
43823;SDS011;29470;53.550;9.926;2024-01-10T14:38:11;18.52;;;8.20;;
43823;SDS011;29470;53.550;9.926;2024-01-10T14:43:37;20.90;;;7.93;;
43823;SDS011;29470;53.550;9.926;2024-01-10T14:48:49;24.67;;;9.68;;
43823;SDS011;29470;53.550;9.926;2024-01-10T14:54:02;18.45;;;8.70;;
43823;SDS011;29470;53.550;9.926;2024-01-10T14:59:16;18.48;;;8.57;;
43823;SDS011;29470;53.550;9.926;2024-01-10T15:04:48;16.48;;;7.18;;
43823;SDS011;29470;53.550;9.926;2024-01-10T15:10:05;18.88;;;8.10;;
43823;SDS011;29470;53.550;9.926;2024-01-10T15:15:23;20.70;;;9.68;;
43823;SDS011;29470;53.550;9.926;2024-01-10T15:20:36;21.52;;;9.82;;
43823;SDS011;29470;53.550;9.926;2024-01-10T15:26:06;23.05;;;9.38;;
43823;SDS011;29470;53.550;9.926;2024-01-10T15:39:35;21.95;;;10.75;;
43823;SDS011;29470;53.550;9.926;2024-01-10T15:44:53;21.70;;;10.75;;
43823;SDS011;29470;53.550;9.926;2024-01-10T15:50:05;21.52;;;10.57;;
43823;SDS011;29470;53.550;9.926;2024-01-10T15:55:23;23.87;;;10.70;;
43823;SDS011;29470;53.550;9.926;2024-01-10T16:00:34;26.25;;;11.77;;
43823;SDS011;29470;53.550;9.926;2024-01-10T16:05:46;23.13;;;10.82;;
43823;SDS011;29470;53.550;9.926;2024-01-10T16:11:04;27.85;;;11.35;;
43823;SDS011;29470;53.550;9.926;2024-01-10T16:55:13;27.02;;;11.85;;
43823;SDS011;29470;53.550;9.926;2024-01-10T17:00:45;23.60;;;9.82;;
43823;SDS011;29470;53.550;9.926;2024-01-10T17:06:13;26.23;;;11.95;;
43823;SDS011;29470;53.550;9.926;2024-01-10T17:11:41;30.83;;;12.48;;
43823;SDS011;29470;53.550;9.926;2024-01-10T17:17:40;30.67;;;13.20;;
43823;SDS011;29470;53.550;9.926;2024-01-10T17:23:02;31.70;;;14.32;;
43823;SDS011;29470;53.550;9.926;2024-01-10T17:28:26;25.60;;;10.20;;
43823;SDS011;29470;53.550;9.926;2024-01-10T17:33:43;29.73;;;13.57;;
43823;SDS011;29470;53.550;9.926;2024-01-10T17:39:00;30.60;;;14.55;;
43823;SDS011;29470;53.550;9.926;2024-01-10T17:44:15;32.42;;;15.25;;
43823;SDS011;29470;53.550;9.926;2024-01-10T17:49:39;32.25;;;14.27;;
43823;SDS011;29470;53.550;9.926;2024-01-10T17:55:00;31.30;;;14.25;;
43823;SDS011;29470;53.550;9.926;2024-01-10T18:00:17;25.63;;;10.00;;
43823;SDS011;29470;53.550;9.926;2024-01-10T18:05:30;25.95;;;12.18;;
43823;SDS011;29470;53.550;9.926;2024-01-10T18:10:59;26.90;;;11.55;;
43823;SDS011;29470;53.550;9.926;2024-01-10T18:16:33;31.40;;;13.82;;
43823;SDS011;29470;53.550;9.926;2024-01-10T18:21:48;31.65;;;13.85;;
43823;SDS011;29470;53.550;9.926;2024-01-10T18:27:04;33.83;;;15.75;;
43823;SDS011;29470;53.550;9.926;2024-01-10T18:32:20;27.77;;;11.10;;
43823;SDS011;29470;53.550;9.926;2024-01-10T18:37:41;30.45;;;13.73;;
43823;SDS011;29470;53.550;9.926;2024-01-10T18:43:02;36.70;;;15.13;;
43823;SDS011;29470;53.550;9.926;2024-01-10T18:48:17;36.33;;;17.05;;
43823;SDS011;29470;53.550;9.926;2024-01-10T18:53:39;41.15;;;17.35;;
43823;SDS011;29470;53.550;9.926;2024-01-10T18:59:00;36.50;;;16.70;;
43823;SDS011;29470;53.550;9.926;2024-01-10T19:04:22;40.63;;;18.17;;
43823;SDS011;29470;53.550;9.926;2024-01-10T19:09:35;45.95;;;19.25;;
43823;SDS011;29470;53.550;9.926;2024-01-10T19:14:51;39.40;;;16.83;;
43823;SDS011;29470;53.550;9.926;2024-01-10T19:20:07;34.15;;;16.05;;
43823;SDS011;29470;53.550;9.926;2024-01-10T19:25:22;39.58;;;17.98;;
43823;SDS011;29470;53.550;9.926;2024-01-10T19:30:40;35.05;;;16.10;;
43823;SDS011;29470;53.550;9.926;2024-01-10T19:35:56;37.53;;;17.10;;
43823;SDS011;29470;53.550;9.926;2024-01-10T19:41:18;38.53;;;17.58;;
43823;SDS011;29470;53.550;9.926;2024-01-10T19:46:38;43.00;;;17.25;;
43823;SDS011;29470;53.550;9.926;2024-01-10T19:51:53;38.42;;;17.67;;
43823;SDS011;29470;53.550;9.926;2024-01-10T19:57:06;36.47;;;17.48;;
43823;SDS011;29470;53.550;9.926;2024-01-10T20:02:19;38.20;;;17.10;;
43823;SDS011;29470;53.550;9.926;2024-01-10T20:07:39;37.38;;;17.33;;
43823;SDS011;29470;53.550;9.926;2024-01-10T20:12:56;38.17;;;17.38;;
43823;SDS011;29470;53.550;9.926;2024-01-10T20:18:10;37.63;;;14.75;;
43823;SDS011;29470;53.550;9.926;2024-01-10T20:23:32;31.77;;;13.43;;
43823;SDS011;29470;53.550;9.926;2024-01-10T20:28:48;27.20;;;11.90;;
43823;SDS011;29470;53.550;9.926;2024-01-10T20:34:24;43.30;;;18.60;;
43823;SDS011;29470;53.550;9.926;2024-01-10T20:39:43;41.60;;;18.50;;
43823;SDS011;29470;53.550;9.926;2024-01-10T20:45:01;28.23;;;10.70;;
43823;SDS011;29470;53.550;9.926;2024-01-10T20:50:20;42.40;;;17.67;;
43823;SDS011;29470;53.550;9.926;2024-01-10T20:55:34;40.05;;;18.17;;
43823;SDS011;29470;53.550;9.926;2024-01-10T21:00:55;41.97;;;18.03;;
43823;SDS011;29470;53.550;9.926;2024-01-10T21:06:15;42.88;;;18.35;;
43823;SDS011;29470;53.550;9.926;2024-01-10T21:11:34;43.65;;;20.02;;
43823;SDS011;29470;53.550;9.926;2024-01-10T21:16:58;38.55;;;17.67;;
43823;SDS011;29470;53.550;9.926;2024-01-10T21:22:20;38.13;;;17.92;;
43823;SDS011;29470;53.550;9.926;2024-01-10T21:27:39;36.85;;;17.13;;
43823;SDS011;29470;53.550;9.926;2024-01-10T21:33:03;35.30;;;15.88;;
43823;SDS011;29470;53.550;9.926;2024-01-10T21:38:15;37.95;;;16.67;;
43823;SDS011;29470;53.550;9.926;2024-01-10T21:43:35;37.40;;;16.55;;
43823;SDS011;29470;53.550;9.926;2024-01-10T21:49:01;40.40;;;18.67;;
43823;SDS011;29470;53.550;9.926;2024-01-10T21:54:24;42.33;;;17.83;;
43823;SDS011;29470;53.550;9.926;2024-01-10T21:59:42;41.72;;;18.50;;
43823;SDS011;29470;53.550;9.926;2024-01-10T22:05:00;40.05;;;19.27;;
43823;SDS011;29470;53.550;9.926;2024-01-10T22:10:11;38.92;;;18.58;;
43823;SDS011;29470;53.550;9.926;2024-01-10T22:15:27;39.00;;;17.80;;
43823;SDS011;29470;53.550;9.926;2024-01-10T22:20:45;44.17;;;18.33;;
43823;SDS011;29470;53.550;9.926;2024-01-10T22:26:06;37.08;;;17.67;;
43823;SDS011;29470;53.550;9.926;2024-01-10T22:31:25;39.08;;;16.83;;
43823;SDS011;29470;53.550;9.926;2024-01-10T22:36:40;36.15;;;17.75;;
43823;SDS011;29470;53.550;9.926;2024-01-10T22:41:57;39.92;;;18.17;;
43823;SDS011;29470;53.550;9.926;2024-01-10T22:47:17;41.55;;;18.20;;
43823;SDS011;29470;53.550;9.926;2024-01-10T22:52:39;42.83;;;19.20;;
43823;SDS011;29470;53.550;9.926;2024-01-10T22:58:05;42.55;;;19.80;;
43823;SDS011;29470;53.550;9.926;2024-01-10T23:03:27;40.38;;;15.73;;
43823;SDS011;29470;53.550;9.926;2024-01-10T23:08:46;44.05;;;16.95;;
43823;SDS011;29470;53.550;9.926;2024-01-10T23:14:05;44.65;;;18.25;;
43823;SDS011;29470;53.550;9.926;2024-01-10T23:19:35;33.90;;;13.17;;
43823;SDS011;29470;53.550;9.926;2024-01-10T23:24:49;43.78;;;16.00;;
43823;SDS011;29470;53.550;9.926;2024-01-10T23:30:08;44.88;;;15.85;;
43823;SDS011;29470;53.550;9.926;2024-01-10T23:35:34;41.97;;;16.67;;
43823;SDS011;29470;53.550;9.926;2024-01-10T23:40:53;42.42;;;14.95;;
43823;SDS011;29470;53.550;9.926;2024-01-10T23:46:11;47.05;;;17.55;;
43823;SDS011;29470;53.550;9.926;2024-01-10T23:51:26;44.08;;;15.73;;
43823;SDS011;29470;53.550;9.926;2024-01-10T23:56:37;44.08;;;17.95;;
